Patcona II — WDC2170 — position and weather

sailwx.info

Track history (hours):
 
Tides and Currents Weather Stations Pressure Air Temp Water Temp Dewpoint Dewpoint Depression Visibility Wind Speed Wind Dir Waves Ship Positions

Patcona II

Owner: Connolly-Pacific Co, long beach, CA. More information available from US FCC via Universal Licensing System and Coast Guard Vessel Documentation Center.

Last reported at 2017-Mar-23 13:33 UTC. Time now 2017-Mar-23 14:17 UTC.
Position N 29°45' W 095°06'.

; draft 9 m.

Type: Towing. MMSI: 366988960.

Date/timePositionNaut miles runAvg speedWind from/ knotsBaromVisibWave heightAir tempDewpointWater temp
2017-Mar-23 13:33N 29°45' W 095°06'1 1.2
2017-Mar-23 12:29N 29°46' W 095°05'12045515.4
2017-Mar-23 12:16N 33°46' W 118°13'1204442.3
2017-Mar-23 09:33N 29°46' W 095°05'1 0.8
2017-Mar-23 08:19N 29°45' W 095°06'1204133.8
2017-Mar-22 23:20N 33°46' W 118°13'0 0.0
2017-Mar-22 22:33N 33°46' W 118°13'0 0.0
2017-Mar-22 21:33N 33°46' W 118°13'12042552.4
2017-Mar-22 21:05N 29°45' W 095°06'12042300.4
2017-Mar-22 20:34N 33°46' W 118°13'1204619088.1
2017-Mar-22 20:33N 29°45' W 095°06'12041193.5
2017-Mar-22 19:33N 33°46' W 118°13'0 0.0
2017-Mar-22 18:26N 33°46' W 118°13'0 0.0
2017-Mar-22 17:15N 33°46' W 118°13'0 0.0
2017-Mar-22 14:31N 33°46' W 118°13'0 0.0
2017-Mar-22 13:13N 33°46' W 118°13'0 0.0
2017-Mar-22 12:27N 33°46' W 118°13'0 0.0
2017-Mar-22 11:22N 33°46' W 118°13'0 0.0
2017-Mar-22 09:32N 33°46' W 118°13'12033647.4
2017-Mar-22 09:12N 29°44' W 095°08'12031807.0
2017-Mar-22 08:33N 33°46' W 118°13'0 0.0
2017-Mar-22 04:29N 33°46' W 118°13'0 0.0
2017-Mar-22 03:32N 33°46' W 118°13'120312629.9
2017-Mar-22 03:26N 29°47' W 095°06'1203637.6
2017-Mar-22 01:33N 33°46' W 118°13'0 0.0
2017-Mar-22 00:33N 33°46' W 118°13'0 0.0
2017-Mar-21 23:31N 33°46' W 118°13'0 0.0
2017-Mar-21 22:33N 33°46' W 118°13'0 0.0
2017-Mar-21 21:34N 33°46' W 118°13'0 0.0
2017-Mar-21 20:34N 33°46' W 118°13'0 0.0
2017-Mar-21 19:33N 33°46' W 118°13'0 0.0
2017-Mar-21 17:32N 33°46' W 118°13'12019869.4
2017-Mar-21 17:24N 29°45' W 095°10'1201995.6
2017-Mar-21 16:12N 33°46' W 118°13'0 0.0
2017-Mar-21 15:32N 33°46' W 118°13'0 0.0
2017-Mar-21 12:33N 33°46' W 118°13'0 0.0
2017-Mar-21 11:24N 33°46' W 118°13'12041442.1
2017-Mar-21 10:33N 29°46' W 095°05'1204114077.6
2017-Mar-21 10:33N 33°46' W 118°13'0 0.0
2017-Mar-21 09:33N 33°46' W 118°13'120319779.8
2017-Mar-21 09:30N 29°44' W 095°07'12031267.0
2017-Mar-21 08:33N 33°46' W 118°13'12031082944.1
2017-Mar-21 08:33N 29°44' W 095°07'12031203.6
2017-Mar-21 07:33N 33°46' W 118°13'120323670.9
2017-Mar-21 07:30N 29°44' W 095°07'0 0.0
2017-Mar-21 06:30N 29°44' W 095°07'0 0.0
2017-Mar-21 05:33N 29°44' W 095°07'12038646.3
2017-Mar-21 05:24N 33°46' W 118°13'12031397.3
2017-Mar-21 04:33N 29°44' W 095°07'0 0.0
2017-Mar-21 03:30N 29°44' W 095°07'0 0.0
2017-Mar-21 02:29N 29°44' W 095°07'0 0.0
2017-Mar-21 01:21N 29°44' W 095°07'2 2.5
2017-Mar-21 00:33N 29°46' W 095°05'3 2.7
2017-Mar-20 23:33N 29°44' W 095°03'0 0.0
2017-Mar-20 22:33N 29°44' W 095°03'0 0.0
2017-Mar-20 21:33N 29°44' W 095°03'1207140130.2
2017-Mar-20 21:33N 33°46' W 118°13'12071217.5
2017-Mar-20 20:33N 29°44' W 095°03'120728392.4
2017-Mar-20 20:31N 33°46' W 118°13'12071260.2
2017-Mar-20 19:33N 29°44' W 095°03'12073709.7
2017-Mar-20 19:14N 33°46' W 118°13'12071790.6
2017-Mar-20 18:33N 29°44' W 095°03'120727846.4
2017-Mar-20 18:31N 33°46' W 118°13'0 0.0
2017-Mar-20 17:33N 33°46' W 118°13'1207620576.7
2017-Mar-20 17:33N 29°44' W 095°03'0 0.0
2017-Mar-20 16:33N 29°44' W 095°03'12074572.7
2017-Mar-20 16:17N 33°46' W 118°13'12071495.4
2017-Mar-20 15:29N 29°44' W 095°03'12079164.6
2017-Mar-20 15:21N 33°46' W 118°13'12071461.0
2017-Mar-20 14:31N 29°44' W 095°03'12075662.9
2017-Mar-20 14:19N 33°46' W 118°13'0 0.0
2017-Mar-20 13:31N 33°46' W 118°13'0 0.0
2017-Mar-20 12:33N 33°46' W 118°13'0 0.0
2017-Mar-20 11:25N 33°46' W 118°13'0 0.0
2017-Mar-20 10:30N 33°46' W 118°13'0 0.0
2017-Mar-20 09:04N 33°46' W 118°13'0 0.0
2017-Mar-20 08:32N 33°46' W 118°13'0 0.0
2017-Mar-20 05:27N 33°46' W 118°13'0 0.0
2017-Mar-20 04:33N 33°46' W 118°13'0 0.0
2017-Mar-20 03:33N 33°46' W 118°13'0 0.0
2017-Mar-20 02:34N 33°46' W 118°13'0 0.0
2017-Mar-20 01:33N 33°46' W 118°13'0 0.0
2017-Mar-20 00:33N 33°46' W 118°13'0 0.0
2017-Mar-19 23:34N 33°46' W 118°13'12044605.7
2017-Mar-19 23:18N 29°46' W 095°06'12041623.8
2017-Mar-19 22:33N 33°46' W 118°13'0 0.0
2017-Mar-19 21:33N 33°46' W 118°13'0 0.0
2017-Mar-19 20:33N 33°46' W 118°13'120310776.1
2017-Mar-19 20:27N 29°47' W 095°06'12031355.0
2017-Mar-19 19:33N 33°46' W 118°13'0 0.0
2017-Mar-19 18:33N 33°46' W 118°13'0 0.0
2017-Mar-19 17:33N 33°46' W 118°13'0 0.0
2017-Mar-19 16:31N 33°46' W 118°13'0 0.0
2017-Mar-19 15:33N 33°46' W 118°13'0 0.0
2017-Mar-19 14:23N 33°46' W 118°13'0 0.0
2017-Mar-19 13:32N 33°46' W 118°13'0 0.0
2017-Mar-19 12:33N 33°46' W 118°13'0 0.0
2017-Mar-19 11:33N 33°46' W 118°13'120315253.7
2017-Mar-19 11:29N 29°47' W 095°06'1 1.4
2017-Mar-19 10:33N 29°45' W 095°06'120420641.8
2017-Mar-19 10:30N 33°46' W 118°13'0 0.0
2017-Mar-19 09:33N 33°46' W 118°13'0 0.0
2017-Mar-19 08:33N 33°46' W 118°13'0 0.0
2017-Mar-19 07:34N 33°46' W 118°13'0 0.0
2017-Mar-19 06:34N 33°46' W 118°13'0 0.0
2017-Mar-19 05:34N 33°46' W 118°13'120037242.7
2017-Mar-19 05:32N 29°45' W 095°11'12001239.6
2017-Mar-19 04:34N 33°46' W 118°13'0 0.0
2017-Mar-19 03:33N 33°46' W 118°13'0 0.0
2017-Mar-19 02:33N 33°46' W 118°13'0 0.0
2017-Mar-19 01:33N 33°46' W 118°13'0 0.0
2017-Mar-19 00:33N 33°46' W 118°13'0 0.0
2017-Mar-18 23:34N 33°46' W 118°13'0 0.0
2017-Mar-18 22:30N 33°46' W 118°13'0 0.0
2017-Mar-18 21:27N 33°46' W 118°13'0 0.0
2017-Mar-18 20:34N 33°46' W 118°13'0 0.0
2017-Mar-18 19:34N 33°46' W 118°13'0 0.0
2017-Mar-18 18:28N 33°46' W 118°13'0 0.0
2017-Mar-18 17:34N 33°46' W 118°13'11963668.1
2017-Mar-18 17:14N 29°44' W 095°16'4 5.8
2017-Mar-18 16:33N 29°45' W 095°11'12003647.2
2017-Mar-18 16:13N 33°46' W 118°13'0 0.0
2017-Mar-18 15:34N 33°46' W 118°13'120217667.2
2017-Mar-18 15:29N 29°44' W 095°08'12021283.6
2017-Mar-18 14:33N 33°46' W 118°13'120283239.5
2017-Mar-18 14:32N 29°44' W 095°08'12021212.8
2017-Mar-18 13:33N 33°46' W 118°13'1202160313.0
2017-Mar-18 13:32N 29°44' W 095°08'12021218.6
2017-Mar-18 12:33N 33°46' W 118°13'0 0.0
2017-Mar-18 11:33N 33°46' W 118°13'120210767.3
2017-Mar-18 11:26N 29°44' W 095°08'12021362.4
2017-Mar-18 10:34N 33°46' W 118°13'120259293.9
2017-Mar-18 10:32N 29°44' W 095°08'12021220.3
2017-Mar-18 09:33N 33°46' W 118°13'120281663.7
2017-Mar-18 09:32N 29°44' W 095°08'12021226.5
2017-Mar-18 08:34N 33°46' W 118°13'0 0.0
2017-Mar-18 07:33N 33°46' W 118°13'0 0.0
2017-Mar-18 06:34N 33°46' W 118°13'12022476.3
2017-Mar-18 06:04N 29°44' W 095°08'12022313.5
2017-Mar-18 05:33N 33°46' W 118°13'0 0.0
2017-Mar-18 04:25N 33°46' W 118°13'0 0.0
2017-Mar-18 03:31N 33°46' W 118°13'0 0.0
2017-Mar-18 02:34N 33°46' W 118°13'0 0.0
2017-Mar-18 01:33N 33°46' W 118°13'0 0.0
2017-Mar-18 00:33N 33°46' W 118°13'0 0.0
2017-Mar-17 23:34N 33°46' W 118°13'0 0.0
2017-Mar-17 22:33N 33°46' W 118°13'0 0.0
2017-Mar-17 21:34N 33°46' W 118°13'12044463.4
2017-Mar-17 21:17N 29°45' W 095°06'12041642.3
2017-Mar-17 20:33N 33°46' W 118°13'0 0.0
2017-Mar-17 19:33N 33°46' W 118°13'0 0.0
2017-Mar-17 18:33N 33°46' W 118°13'0 0.0
2017-Mar-17 17:33N 33°46' W 118°13'0 0.0
2017-Mar-17 16:34N 33°46' W 118°13'0 0.0
2017-Mar-17 15:34N 33°46' W 118°13'0 0.0
2017-Mar-17 14:34N 33°46' W 118°13'0 0.0
2017-Mar-17 13:34N 33°46' W 118°13'0 0.0
2017-Mar-17 12:33N 33°46' W 118°13'0 0.0
2017-Mar-17 11:33N 33°46' W 118°13'1204196957.7
2017-Mar-17 11:32N 29°44' W 095°06'12041221.6
2017-Mar-17 10:33N 33°46' W 118°13'0 0.0
2017-Mar-17 09:34N 33°46' W 118°13'0 0.0
2017-Mar-17 08:32N 33°46' W 118°13'0 0.0
2017-Mar-17 07:33N 33°46' W 118°13'0 0.0
2017-Mar-17 06:33N 33°46' W 118°13'0 0.0
2017-Mar-17 05:34N 33°46' W 118°13'0 0.0
2017-Mar-17 04:26N 33°46' W 118°13'0 0.0
2017-Mar-17 03:33N 33°46' W 118°13'0 0.0
2017-Mar-17 02:33N 33°46' W 118°13'0 0.0
2017-Mar-17 01:33N 33°46' W 118°13'0 0.0
2017-Mar-17 00:23N 33°46' W 118°13'0 0.0
2017-Mar-16 23:33N 33°46' W 118°13'0 0.0
2017-Mar-16 22:33N 33°46' W 118°13'0 0.0
2017-Mar-16 21:33N 33°46' W 118°13'0 0.0
2017-Mar-16 20:33N 33°46' W 118°13'0 0.0
2017-Mar-16 19:34N 33°46' W 118°13'0 0.0
2017-Mar-16 18:33N 33°46' W 118°13'0 0.0
2017-Mar-16 17:33N 33°46' W 118°13'0 0.0
2017-Mar-16 16:34N 33°46' W 118°13'0 0.0
2017-Mar-16 15:34N 33°46' W 118°13'12049784.8
2017-Mar-16 15:26N 29°45' W 095°06'12041372.6
2017-Mar-16 14:34N 33°46' W 118°13'120419696.3
2017-Mar-16 14:30N 29°46' W 095°06'2 2.2
2017-Mar-16 13:33N 29°45' W 095°04'120611859.3
2017-Mar-16 13:27N 33°46' W 118°13'0 0.0
2017-Mar-16 12:34N 33°46' W 118°13'0 0.0
2017-Mar-16 11:33N 33°46' W 118°13'0 0.0
2017-Mar-16 10:34N 33°46' W 118°13'0 0.0
2017-Mar-16 09:33N 33°46' W 118°13'0 0.0
2017-Mar-16 08:34N 33°46' W 118°13'0 0.0
2017-Mar-16 07:33N 33°46' W 118°13'0 0.0
2017-Mar-16 06:33N 33°46' W 118°13'0 0.0
2017-Mar-16 05:34N 33°46' W 118°13'0 0.0
2017-Mar-16 04:33N 33°46' W 118°13'0 0.0
2017-Mar-16 03:34N 33°46' W 118°13'0 0.0
2017-Mar-16 02:34N 33°46' W 118°13'12074606.4
2017-Mar-16 02:18N 29°44' W 095°03'12071628.1
2017-Mar-16 01:33N 33°46' W 118°13'0 0.0
2017-Mar-16 00:31N 33°46' W 118°13'120413019.6
2017-Mar-16 00:25N 29°46' W 095°05'12041395.4
2017-Mar-15 23:33N 33°46' W 118°13'11984879.0
2017-Mar-15 23:18N 29°44' W 095°14'11981599.8
2017-Mar-15 22:34N 33°46' W 118°13'0 0.0
2017-Mar-15 21:34N 33°46' W 118°13'0 0.0
2017-Mar-15 20:34N 33°46' W 118°13'0 0.0
2017-Mar-15 19:34N 33°46' W 118°13'0 0.0
2017-Mar-15 18:33N 33°46' W 118°13'11953141.4
2017-Mar-15 18:11N 29°44' W 095°17'11951929.1
2017-Mar-15 17:33N 33°46' W 118°13'1198100286.7
2017-Mar-15 17:33N 29°44' W 095°14'11981216.5
2017-Mar-15 16:34N 33°46' W 118°13'12031082288.4
2017-Mar-15 16:33N 29°44' W 095°08'12031203.2
2017-Mar-15 15:34N 33°46' W 118°13'120339743.6
2017-Mar-15 15:32N 29°47' W 095°06'12031240.9
2017-Mar-15 14:34N 33°46' W 118°13'0 0.0
2017-Mar-15 13:34N 33°46' W 118°13'0 0.0
2017-Mar-15 12:33N 33°46' W 118°13'12032166263.3
2017-Mar-15 12:33N 29°46' W 095°06'12031204.8
2017-Mar-15 11:33N 33°46' W 118°13'12001440163.8
2017-Mar-15 11:33N 29°45' W 095°11'12001196.8
2017-Mar-15 10:33N 33°46' W 118°13'11996173.8
2017-Mar-15 10:22N 29°44' W 095°12'11991498.9
2017-Mar-15 09:34N 33°46' W 118°13'11993054.1
2017-Mar-15 09:10N 29°44' W 095°12'11991972.3
2017-Mar-15 08:34N 33°46' W 118°13'0 0.0
2017-Mar-15 07:34N 33°46' W 118°13'119910761.8
2017-Mar-15 07:27N 29°44' W 095°12'11991344.8
2017-Mar-15 06:33N 33°46' W 118°13'119914289.6
2017-Mar-15 06:28N 29°44' W 095°12'11991312.9
2017-Mar-15 05:34N 33°46' W 118°13'11995511.5
2017-Mar-15 05:20N 29°44' W 095°12'11991521.7
2017-Mar-15 04:33N 33°46' W 118°13'119979916.2
2017-Mar-15 04:32N 29°44' W 095°12'11991219.4
2017-Mar-15 03:33N 33°46' W 118°13'119984616.9
2017-Mar-15 03:32N 29°44' W 095°12'0 0.0
2017-Mar-15 02:33N 29°44' W 095°12'1199479497.7
2017-Mar-15 02:33N 33°46' W 118°13'12011205.1
2017-Mar-15 01:34N 29°44' W 095°09'12014325027.0
2017-Mar-15 01:34N 33°46' W 118°13'0 0.0
2017-Mar-15 00:33N 33°46' W 118°13'0 0.0
2017-Mar-14 23:34N 33°46' W 118°13'0 0.0
2017-Mar-14 22:33N 33°46' W 118°13'12009689.7
2017-Mar-14 22:26N 29°45' W 095°10'12001374.1
2017-Mar-14 21:34N 33°46' W 118°13'119820836.6
2017-Mar-14 21:30N 29°44' W 095°13'0 0.0
2017-Mar-14 20:33N 29°44' W 095°13'1198165891.2
2017-Mar-14 20:33N 33°46' W 118°13'0 0.0
2017-Mar-14 19:33N 33°46' W 118°13'1198718861.8
2017-Mar-14 19:33N 29°44' W 095°13'11981206.5
2017-Mar-14 18:34N 33°46' W 118°13'1198154042.2
2017-Mar-14 18:33N 29°44' W 095°13'11981204.1
2017-Mar-14 17:33N 33°46' W 118°13'11987771.5
2017-Mar-14 17:24N 29°44' W 095°13'11981420.7
2017-Mar-14 16:34N 33°46' W 118°13'1198165891.2
2017-Mar-14 16:33N 29°44' W 095°13'11981203.8
2017-Mar-14 15:33N 33°46' W 118°13'0 0.0
2017-Mar-14 14:33N 33°46' W 118°13'1198308084.1
2017-Mar-14 14:33N 29°44' W 095°13'0 0.0
2017-Mar-14 13:33N 29°44' W 095°13'1198148730.0
2017-Mar-14 13:33N 33°46' W 118°13'0 0.0
2017-Mar-14 12:33N 33°46' W 118°13'11984873.6
2017-Mar-14 12:18N 29°44' W 095°13'11981612.4
2017-Mar-14 11:34N 33°46' W 118°13'11983486.8
2017-Mar-14 11:13N 29°44' W 095°13'11981818.4
2017-Mar-14 10:33N 33°46' W 118°13'1200110727.4
2017-Mar-14 10:33N 29°45' W 095°11'12001213.0
2017-Mar-14 09:33N 33°46' W 118°13'0 0.0
2017-Mar-14 08:33N 33°46' W 118°13'0 0.0
2017-Mar-14 07:33N 33°46' W 118°13'0 0.0
2017-Mar-14 06:34N 33°46' W 118°13'0 0.0
2017-Mar-14 05:34N 33°46' W 118°13'0 0.0
2017-Mar-14 04:33N 33°46' W 118°13'0 0.0
2017-Mar-14 03:34N 33°46' W 118°13'120243282.1
2017-Mar-14 03:32N 29°44' W 095°08'12021236.3
2017-Mar-14 02:34N 33°46' W 118°13'11954738.8
2017-Mar-14 02:18N 29°44' W 095°17'11951593.0
2017-Mar-14 01:33N 33°46' W 118°13'0 0.0
2017-Mar-14 00:24N 33°46' W 118°13'0 0.0
2017-Mar-13 23:33N 33°46' W 118°13'0 0.0
2017-Mar-13 22:34N 33°46' W 118°13'0 0.0
2017-Mar-13 21:33N 33°46' W 118°13'0 0.0
2017-Mar-13 20:34N 33°46' W 118°13'0 0.0
2017-Mar-13 19:33N 33°46' W 118°13'119410643.0
2017-Mar-13 19:27N 29°45' W 095°17'4 4.2
2017-Mar-13 18:33N 29°44' W 095°13'11981437704.3
2017-Mar-13 18:33N 33°46' W 118°13'0 0.0
2017-Mar-13 17:33N 33°46' W 118°13'1204866648.8
2017-Mar-13 17:33N 29°45' W 095°06'12041205.0
2017-Mar-13 16:33N 33°46' W 118°13'0 0.0
2017-Mar-13 15:31N 33°46' W 118°13'0 0.0
2017-Mar-13 14:34N 33°46' W 118°13'0 0.0
2017-Mar-13 13:33N 33°46' W 118°13'  
Track history (hours):
 
Tides and Currents Weather Stations Pressure Air Temp Water Temp Dewpoint Dewpoint Depression Visibility Wind Speed Wind Dir Waves Ship Positions

Patcona II

Owner: Connolly-Pacific Co, long beach, CA. More information available from US FCC via Universal Licensing System and Coast Guard Vessel Documentation Center.

Last reported at 2017-Mar-23 13:33 UTC. Time now 2017-Mar-23 14:17 UTC.
Position N 29°45' W 095°06'.

; draft 9 m.

Type: Towing. MMSI: 366988960.

Date/timePositionNaut miles runAvg speedWind from/ knotsBaromVisibWave heightAir tempDewpointWater temp
2017-Mar-23 13:33N 29°45' W 095°06'1 1.2
2017-Mar-23 12:29N 29°46' W 095°05'12045515.4
2017-Mar-23 12:16N 33°46' W 118°13'1204442.3
2017-Mar-23 09:33N 29°46' W 095°05'1 0.8
2017-Mar-23 08:19N 29°45' W 095°06'1204133.8
2017-Mar-22 23:20N 33°46' W 118°13'0 0.0
2017-Mar-22 22:33N 33°46' W 118°13'0 0.0
2017-Mar-22 21:33N 33°46' W 118°13'12042552.4
2017-Mar-22 21:05N 29°45' W 095°06'12042300.4
2017-Mar-22 20:34N 33°46' W 118°13'1204619088.1
2017-Mar-22 20:33N 29°45' W 095°06'12041193.5
2017-Mar-22 19:33N 33°46' W 118°13'0 0.0
2017-Mar-22 18:26N 33°46' W 118°13'0 0.0
2017-Mar-22 17:15N 33°46' W 118°13'0 0.0
2017-Mar-22 14:31N 33°46' W 118°13'0 0.0
2017-Mar-22 13:13N 33°46' W 118°13'0 0.0
2017-Mar-22 12:27N 33°46' W 118°13'0 0.0
2017-Mar-22 11:22N 33°46' W 118°13'0 0.0
2017-Mar-22 09:32N 33°46' W 118°13'12033647.4
2017-Mar-22 09:12N 29°44' W 095°08'12031807.0
2017-Mar-22 08:33N 33°46' W 118°13'0 0.0
2017-Mar-22 04:29N 33°46' W 118°13'0 0.0
2017-Mar-22 03:32N 33°46' W 118°13'120312629.9
2017-Mar-22 03:26N 29°47' W 095°06'1203637.6
2017-Mar-22 01:33N 33°46' W 118°13'0 0.0
2017-Mar-22 00:33N 33°46' W 118°13'0 0.0
2017-Mar-21 23:31N 33°46' W 118°13'0 0.0
2017-Mar-21 22:33N 33°46' W 118°13'0 0.0
2017-Mar-21 21:34N 33°46' W 118°13'0 0.0
2017-Mar-21 20:34N 33°46' W 118°13'0 0.0
2017-Mar-21 19:33N 33°46' W 118°13'0 0.0
2017-Mar-21 17:32N 33°46' W 118°13'12019869.4
2017-Mar-21 17:24N 29°45' W 095°10'1201995.6
2017-Mar-21 16:12N 33°46' W 118°13'0 0.0
2017-Mar-21 15:32N 33°46' W 118°13'0 0.0
2017-Mar-21 12:33N 33°46' W 118°13'0 0.0
2017-Mar-21 11:24N 33°46' W 118°13'12041442.1
2017-Mar-21 10:33N 29°46' W 095°05'1204114077.6
2017-Mar-21 10:33N 33°46' W 118°13'0 0.0
2017-Mar-21 09:33N 33°46' W 118°13'120319779.8
2017-Mar-21 09:30N 29°44' W 095°07'12031267.0
2017-Mar-21 08:33N 33°46' W 118°13'12031082944.1
2017-Mar-21 08:33N 29°44' W 095°07'12031203.6
2017-Mar-21 07:33N 33°46' W 118°13'120323670.9
2017-Mar-21 07:30N 29°44' W 095°07'0 0.0
2017-Mar-21 06:30N 29°44' W 095°07'0 0.0
2017-Mar-21 05:33N 29°44' W 095°07'12038646.3
2017-Mar-21 05:24N 33°46' W 118°13'12031397.3
2017-Mar-21 04:33N 29°44' W 095°07'0 0.0
2017-Mar-21 03:30N 29°44' W 095°07'0 0.0
2017-Mar-21 02:29N 29°44' W 095°07'0 0.0
2017-Mar-21 01:21N 29°44' W 095°07'2 2.5
2017-Mar-21 00:33N 29°46' W 095°05'3 2.7
2017-Mar-20 23:33N 29°44' W 095°03'0 0.0
2017-Mar-20 22:33N 29°44' W 095°03'0 0.0
2017-Mar-20 21:33N 29°44' W 095°03'1207140130.2
2017-Mar-20 21:33N 33°46' W 118°13'12071217.5
2017-Mar-20 20:33N 29°44' W 095°03'120728392.4
2017-Mar-20 20:31N 33°46' W 118°13'12071260.2
2017-Mar-20 19:33N 29°44' W 095°03'12073709.7
2017-Mar-20 19:14N 33°46' W 118°13'12071790.6
2017-Mar-20 18:33N 29°44' W 095°03'120727846.4
2017-Mar-20 18:31N 33°46' W 118°13'0 0.0
2017-Mar-20 17:33N 33°46' W 118°13'1207620576.7
2017-Mar-20 17:33N 29°44' W 095°03'0 0.0
2017-Mar-20 16:33N 29°44' W 095°03'12074572.7
2017-Mar-20 16:17N 33°46' W 118°13'12071495.4
2017-Mar-20 15:29N 29°44' W 095°03'12079164.6
2017-Mar-20 15:21N 33°46' W 118°13'12071461.0
2017-Mar-20 14:31N 29°44' W 095°03'12075662.9
2017-Mar-20 14:19N 33°46' W 118°13'0 0.0
2017-Mar-20 13:31N 33°46' W 118°13'0 0.0
2017-Mar-20 12:33N 33°46' W 118°13'0 0.0
2017-Mar-20 11:25N 33°46' W 118°13'0 0.0
2017-Mar-20 10:30N 33°46' W 118°13'0 0.0
2017-Mar-20 09:04N 33°46' W 118°13'0 0.0
2017-Mar-20 08:32N 33°46' W 118°13'0 0.0
2017-Mar-20 05:27N 33°46' W 118°13'0 0.0
2017-Mar-20 04:33N 33°46' W 118°13'0 0.0
2017-Mar-20 03:33N 33°46' W 118°13'0 0.0
2017-Mar-20 02:34N 33°46' W 118°13'0 0.0
2017-Mar-20 01:33N 33°46' W 118°13'0 0.0
2017-Mar-20 00:33N 33°46' W 118°13'0 0.0
2017-Mar-19 23:34N 33°46' W 118°13'12044605.7
2017-Mar-19 23:18N 29°46' W 095°06'12041623.8
2017-Mar-19 22:33N 33°46' W 118°13'0 0.0
2017-Mar-19 21:33N 33°46' W 118°13'0 0.0
2017-Mar-19 20:33N 33°46' W 118°13'120310776.1
2017-Mar-19 20:27N 29°47' W 095°06'12031355.0
2017-Mar-19 19:33N 33°46' W 118°13'0 0.0
2017-Mar-19 18:33N 33°46' W 118°13'0 0.0
2017-Mar-19 17:33N 33°46' W 118°13'0 0.0
2017-Mar-19 16:31N 33°46' W 118°13'0 0.0
2017-Mar-19 15:33N 33°46' W 118°13'0 0.0
2017-Mar-19 14:23N 33°46' W 118°13'0 0.0
2017-Mar-19 13:32N 33°46' W 118°13'0 0.0
2017-Mar-19 12:33N 33°46' W 118°13'0 0.0
2017-Mar-19 11:33N 33°46' W 118°13'120315253.7
2017-Mar-19 11:29N 29°47' W 095°06'1 1.4
2017-Mar-19 10:33N 29°45' W 095°06'120420641.8
2017-Mar-19 10:30N 33°46' W 118°13'0 0.0
2017-Mar-19 09:33N 33°46' W 118°13'0 0.0
2017-Mar-19 08:33N 33°46' W 118°13'0 0.0
2017-Mar-19 07:34N 33°46' W 118°13'0 0.0
2017-Mar-19 06:34N 33°46' W 118°13'0 0.0
2017-Mar-19 05:34N 33°46' W 118°13'120037242.7
2017-Mar-19 05:32N 29°45' W 095°11'12001239.6
2017-Mar-19 04:34N 33°46' W 118°13'0 0.0
2017-Mar-19 03:33N 33°46' W 118°13'0 0.0
2017-Mar-19 02:33N 33°46' W 118°13'0 0.0
2017-Mar-19 01:33N 33°46' W 118°13'0 0.0
2017-Mar-19 00:33N 33°46' W 118°13'0 0.0
2017-Mar-18 23:34N 33°46' W 118°13'0 0.0
2017-Mar-18 22:30N 33°46' W 118°13'0 0.0
2017-Mar-18 21:27N 33°46' W 118°13'0 0.0
2017-Mar-18 20:34N 33°46' W 118°13'0 0.0
2017-Mar-18 19:34N 33°46' W 118°13'0 0.0
2017-Mar-18 18:28N 33°46' W 118°13'0 0.0
2017-Mar-18 17:34N 33°46' W 118°13'11963668.1
2017-Mar-18 17:14N 29°44' W 095°16'4 5.8
2017-Mar-18 16:33N 29°45' W 095°11'12003647.2
2017-Mar-18 16:13N 33°46' W 118°13'0 0.0
2017-Mar-18 15:34N 33°46' W 118°13'120217667.2
2017-Mar-18 15:29N 29°44' W 095°08'12021283.6
2017-Mar-18 14:33N 33°46' W 118°13'120283239.5
2017-Mar-18 14:32N 29°44' W 095°08'12021212.8
2017-Mar-18 13:33N 33°46' W 118°13'1202160313.0
2017-Mar-18 13:32N 29°44' W 095°08'12021218.6
2017-Mar-18 12:33N 33°46' W 118°13'0 0.0
2017-Mar-18 11:33N 33°46' W 118°13'120210767.3
2017-Mar-18 11:26N 29°44' W 095°08'12021362.4
2017-Mar-18 10:34N 33°46' W 118°13'120259293.9
2017-Mar-18 10:32N 29°44' W 095°08'12021220.3
2017-Mar-18 09:33N 33°46' W 118°13'120281663.7
2017-Mar-18 09:32N 29°44' W 095°08'12021226.5
2017-Mar-18 08:34N 33°46' W 118°13'0 0.0
2017-Mar-18 07:33N 33°46' W 118°13'0 0.0
2017-Mar-18 06:34N 33°46' W 118°13'12022476.3
2017-Mar-18 06:04N 29°44' W 095°08'12022313.5
2017-Mar-18 05:33N 33°46' W 118°13'0 0.0
2017-Mar-18 04:25N 33°46' W 118°13'0 0.0
2017-Mar-18 03:31N 33°46' W 118°13'0 0.0
2017-Mar-18 02:34N 33°46' W 118°13'0 0.0
2017-Mar-18 01:33N 33°46' W 118°13'0 0.0
2017-Mar-18 00:33N 33°46' W 118°13'0 0.0
2017-Mar-17 23:34N 33°46' W 118°13'0 0.0
2017-Mar-17 22:33N 33°46' W 118°13'0 0.0
2017-Mar-17 21:34N 33°46' W 118°13'12044463.4
2017-Mar-17 21:17N 29°45' W 095°06'12041642.3
2017-Mar-17 20:33N 33°46' W 118°13'0 0.0
2017-Mar-17 19:33N 33°46' W 118°13'0 0.0
2017-Mar-17 18:33N 33°46' W 118°13'0 0.0
2017-Mar-17 17:33N 33°46' W 118°13'0 0.0
2017-Mar-17 16:34N 33°46' W 118°13'0 0.0
2017-Mar-17 15:34N 33°46' W 118°13'0 0.0
2017-Mar-17 14:34N 33°46' W 118°13'0 0.0
2017-Mar-17 13:34N 33°46' W 118°13'0 0.0
2017-Mar-17 12:33N 33°46' W 118°13'0 0.0
2017-Mar-17 11:33N 33°46' W 118°13'1204196957.7
2017-Mar-17 11:32N 29°44' W 095°06'12041221.6
2017-Mar-17 10:33N 33°46' W 118°13'0 0.0
2017-Mar-17 09:34N 33°46' W 118°13'0 0.0
2017-Mar-17 08:32N 33°46' W 118°13'0 0.0
2017-Mar-17 07:33N 33°46' W 118°13'0 0.0
2017-Mar-17 06:33N 33°46' W 118°13'0 0.0
2017-Mar-17 05:34N 33°46' W 118°13'0 0.0
2017-Mar-17 04:26N 33°46' W 118°13'0 0.0
2017-Mar-17 03:33N 33°46' W 118°13'0 0.0
2017-Mar-17 02:33N 33°46' W 118°13'0 0.0
2017-Mar-17 01:33N 33°46' W 118°13'0 0.0
2017-Mar-17 00:23N 33°46' W 118°13'0 0.0
2017-Mar-16 23:33N 33°46' W 118°13'0 0.0
2017-Mar-16 22:33N 33°46' W 118°13'0 0.0
2017-Mar-16 21:33N 33°46' W 118°13'0 0.0
2017-Mar-16 20:33N 33°46' W 118°13'0 0.0
2017-Mar-16 19:34N 33°46' W 118°13'0 0.0
2017-Mar-16 18:33N 33°46' W 118°13'0 0.0
2017-Mar-16 17:33N 33°46' W 118°13'0 0.0
2017-Mar-16 16:34N 33°46' W 118°13'0 0.0
2017-Mar-16 15:34N 33°46' W 118°13'12049784.8
2017-Mar-16 15:26N 29°45' W 095°06'12041372.6
2017-Mar-16 14:34N 33°46' W 118°13'120419696.3
2017-Mar-16 14:30N 29°46' W 095°06'2 2.2
2017-Mar-16 13:33N 29°45' W 095°04'120611859.3
2017-Mar-16 13:27N 33°46' W 118°13'0 0.0
2017-Mar-16 12:34N 33°46' W 118°13'0 0.0
2017-Mar-16 11:33N 33°46' W 118°13'0 0.0
2017-Mar-16 10:34N 33°46' W 118°13'0 0.0
2017-Mar-16 09:33N 33°46' W 118°13'0 0.0
2017-Mar-16 08:34N 33°46' W 118°13'0 0.0
2017-Mar-16 07:33N 33°46' W 118°13'0 0.0
2017-Mar-16 06:33N 33°46' W 118°13'0 0.0
2017-Mar-16 05:34N 33°46' W 118°13'0 0.0
2017-Mar-16 04:33N 33°46' W 118°13'0 0.0
2017-Mar-16 03:34N 33°46' W 118°13'0 0.0
2017-Mar-16 02:34N 33°46' W 118°13'12074606.4
2017-Mar-16 02:18N 29°44' W 095°03'12071628.1
2017-Mar-16 01:33N 33°46' W 118°13'0 0.0
2017-Mar-16 00:31N 33°46' W 118°13'120413019.6
2017-Mar-16 00:25N 29°46' W 095°05'12041395.4
2017-Mar-15 23:33N 33°46' W 118°13'11984879.0
2017-Mar-15 23:18N 29°44' W 095°14'11981599.8
2017-Mar-15 22:34N 33°46' W 118°13'0 0.0
2017-Mar-15 21:34N 33°46' W 118°13'0 0.0
2017-Mar-15 20:34N 33°46' W 118°13'0 0.0
2017-Mar-15 19:34N 33°46' W 118°13'0 0.0
2017-Mar-15 18:33N 33°46' W 118°13'11953141.4
2017-Mar-15 18:11N 29°44' W 095°17'11951929.1
2017-Mar-15 17:33N 33°46' W 118°13'1198100286.7
2017-Mar-15 17:33N 29°44' W 095°14'11981216.5
2017-Mar-15 16:34N 33°46' W 118°13'12031082288.4
2017-Mar-15 16:33N 29°44' W 095°08'12031203.2
2017-Mar-15 15:34N 33°46' W 118°13'120339743.6
2017-Mar-15 15:32N 29°47' W 095°06'12031240.9
2017-Mar-15 14:34N 33°46' W 118°13'0 0.0
2017-Mar-15 13:34N 33°46' W 118°13'0 0.0
2017-Mar-15 12:33N 33°46' W 118°13'12032166263.3
2017-Mar-15 12:33N 29°46' W 095°06'12031204.8
2017-Mar-15 11:33N 33°46' W 118°13'12001440163.8
2017-Mar-15 11:33N 29°45' W 095°11'12001196.8
2017-Mar-15 10:33N 33°46' W 118°13'11996173.8
2017-Mar-15 10:22N 29°44' W 095°12'11991498.9
2017-Mar-15 09:34N 33°46' W 118°13'11993054.1
2017-Mar-15 09:10N 29°44' W 095°12'11991972.3
2017-Mar-15 08:34N 33°46' W 118°13'0 0.0
2017-Mar-15 07:34N 33°46' W 118°13'119910761.8
2017-Mar-15 07:27N 29°44' W 095°12'11991344.8
2017-Mar-15 06:33N 33°46' W 118°13'119914289.6
2017-Mar-15 06:28N 29°44' W 095°12'11991312.9
2017-Mar-15 05:34N 33°46' W 118°13'11995511.5
2017-Mar-15 05:20N 29°44' W 095°12'11991521.7
2017-Mar-15 04:33N 33°46' W 118°13'119979916.2
2017-Mar-15 04:32N 29°44' W 095°12'11991219.4
2017-Mar-15 03:33N 33°46' W 118°13'119984616.9
2017-Mar-15 03:32N 29°44' W 095°12'0 0.0
2017-Mar-15 02:33N 29°44' W 095°12'1199479497.7
2017-Mar-15 02:33N 33°46' W 118°13'12011205.1
2017-Mar-15 01:34N 29°44' W 095°09'12014325027.0
2017-Mar-15 01:34N 33°46' W 118°13'0 0.0
2017-Mar-15 00:33N 33°46' W 118°13'0 0.0
2017-Mar-14 23:34N 33°46' W 118°13'0 0.0
2017-Mar-14 22:33N 33°46' W 118°13'12009689.7
2017-Mar-14 22:26N 29°45' W 095°10'12001374.1
2017-Mar-14 21:34N 33°46' W 118°13'119820836.6
2017-Mar-14 21:30N 29°44' W 095°13'0 0.0
2017-Mar-14 20:33N 29°44' W 095°13'1198165891.2
2017-Mar-14 20:33N 33°46' W 118°13'0 0.0
2017-Mar-14 19:33N 33°46' W 118°13'1198718861.8
2017-Mar-14 19:33N 29°44' W 095°13'11981206.5
2017-Mar-14 18:34N 33°46' W 118°13'1198154042.2
2017-Mar-14 18:33N 29°44' W 095°13'11981204.1
2017-Mar-14 17:33N 33°46' W 118°13'11987771.5
2017-Mar-14 17:24N 29°44' W 095°13'11981420.7
2017-Mar-14 16:34N 33°46' W 118°13'1198165891.2
2017-Mar-14 16:33N 29°44' W 095°13'11981203.8
2017-Mar-14 15:33N 33°46' W 118°13'0 0.0
2017-Mar-14 14:33N 33°46' W 118°13'1198308084.1
2017-Mar-14 14:33N 29°44' W 095°13'0 0.0
2017-Mar-14 13:33N 29°44' W 095°13'1198148730.0
2017-Mar-14 13:33N 33°46' W 118°13'0 0.0
2017-Mar-14 12:33N 33°46' W 118°13'11984873.6
2017-Mar-14 12:18N 29°44' W 095°13'11981612.4
2017-Mar-14 11:34N 33°46' W 118°13'11983486.8
2017-Mar-14 11:13N 29°44' W 095°13'11981818.4
2017-Mar-14 10:33N 33°46' W 118°13'1200110727.4
2017-Mar-14 10:33N 29°45' W 095°11'12001213.0
2017-Mar-14 09:33N 33°46' W 118°13'0 0.0
2017-Mar-14 08:33N 33°46' W 118°13'0 0.0
2017-Mar-14 07:33N 33°46' W 118°13'0 0.0
2017-Mar-14 06:34N 33°46' W 118°13'0 0.0
2017-Mar-14 05:34N 33°46' W 118°13'0 0.0
2017-Mar-14 04:33N 33°46' W 118°13'0 0.0
2017-Mar-14 03:34N 33°46' W 118°13'120243282.1
2017-Mar-14 03:32N 29°44' W 095°08'12021236.3
2017-Mar-14 02:34N 33°46' W 118°13'11954738.8
2017-Mar-14 02:18N 29°44' W 095°17'11951593.0
2017-Mar-14 01:33N 33°46' W 118°13'0 0.0
2017-Mar-14 00:24N 33°46' W 118°13'0 0.0
2017-Mar-13 23:33N 33°46' W 118°13'0 0.0
2017-Mar-13 22:34N 33°46' W 118°13'0 0.0
2017-Mar-13 21:33N 33°46' W 118°13'0 0.0
2017-Mar-13 20:34N 33°46' W 118°13'0 0.0
2017-Mar-13 19:33N 33°46' W 118°13'119410643.0
2017-Mar-13 19:27N 29°45' W 095°17'4 4.2
2017-Mar-13 18:33N 29°44' W 095°13'11981437704.3
2017-Mar-13 18:33N 33°46' W 118°13'0 0.0
2017-Mar-13 17:33N 33°46' W 118°13'1204866648.8
2017-Mar-13 17:33N 29°45' W 095°06'12041205.0
2017-Mar-13 16:33N 33°46' W 118°13'0 0.0
2017-Mar-13 15:31N 33°46' W 118°13'0 0.0
2017-Mar-13 14:34N 33°46' W 118°13'0 0.0
2017-Mar-13 13:33N 33°46' W 118°13'  

Dump ship's entire track history